createdAt,value
2018-06-03T00:01:40.872Z,97165.17
2018-06-03T00:04:06.807Z,97155.20
2018-06-03T00:06:32.693Z,97150.49
2018-06-03T00:08:58.522Z,97155.56
2018-06-03T00:11:24.384Z,97144.39
2018-06-03T00:13:50.251Z,97145.45
2018-06-03T00:16:16.129Z,97136.42
2018-06-03T00:18:41.977Z,97143.69
2018-06-03T00:21:34.008Z,97141.18
2018-06-03T00:23:59.904Z,97142.17
2018-06-03T00:26:25.789Z,97142.54
2018-06-03T00:28:51.652Z,97148.17
2018-06-03T00:31:17.549Z,97148.88
2018-06-03T00:33:43.406Z,97151.44
2018-06-03T00:36:21.754Z,97155.12
2018-06-03T00:38:47.625Z,97153.41
2018-06-03T00:41:13.500Z,97151.20
2018-06-03T00:43:39.344Z,97152.14
2018-06-03T00:46:05.235Z,97155.23
2018-06-03T00:48:31.090Z,97154.45
2018-06-03T00:50:56.933Z,97156.45
2018-06-03T00:53:22.758Z,97155.16
2018-06-03T00:55:48.608Z,97158.17
2018-06-03T00:58:14.473Z,97150.78
2018-06-03T01:00:40.370Z,97157.21
2018-06-03T01:03:06.246Z,97149.73
2018-06-03T01:05:32.101Z,97153.08
2018-06-03T01:07:57.929Z,97155.30
2018-06-03T01:10:23.783Z,97150.73
2018-06-03T01:12:49.630Z,97150.78
2018-06-03T01:15:15.488Z,97155.21
2018-06-03T01:17:41.361Z,97154.45
2018-06-03T01:20:07.233Z,97162.51
2018-06-03T01:22:33.106Z,97153.08
2018-06-03T01:24:58.964Z,97155.67
2018-06-03T01:27:24.810Z,97152.03
2018-06-03T01:29:50.665Z,97146.64
2018-06-03T01:32:16.518Z,97147.14
2018-06-03T01:34:42.360Z,97145.55
2018-06-03T01:37:08.225Z,97143.58
2018-06-03T01:39:34.095Z,97139.56
2018-06-03T01:41:59.969Z,97138.08
2018-06-03T01:44:25.839Z,97141.11
2018-06-03T01:46:51.688Z,97143.48
2018-06-03T01:49:17.572Z,97142.34
2018-06-03T01:51:43.453Z,97135.25
2018-06-03T01:54:09.545Z,97141.97
2018-06-03T01:56:35.411Z,97134.75
2018-06-03T01:59:01.295Z,97136.03
2018-06-03T02:01:27.181Z,97134.71
2018-06-03T02:03:53.053Z,97132.05
2018-06-03T02:06:18.922Z,97134.39
2018-06-03T02:08:44.767Z,97130.27
2018-06-03T02:11:10.677Z,97129.53
2018-06-03T02:13:36.525Z,97124.16
2018-06-03T02:16:02.398Z,97128.20
2018-06-03T02:18:28.279Z,97131.66
2018-06-03T02:20:54.132Z,97120.55
2018-06-03T02:23:19.974Z,97119.59
2018-06-03T02:25:45.833Z,97126.34
2018-06-03T02:28:11.653Z,97130.27
2018-06-03T02:30:37.506Z,97123.08
2018-06-03T02:33:03.414Z,97132.45
2018-06-03T02:35:29.278Z,97126.56
2018-06-03T02:37:55.132Z,97126.52
2018-06-03T02:40:20.997Z,97120.06
2018-06-03T02:42:46.866Z,97121.03
2018-06-03T02:45:12.725Z,97120.36
2018-06-03T02:47:38.633Z,97120.20
2018-06-03T02:50:04.466Z,97130.50
2018-06-03T02:52:30.337Z,97124.96
2018-06-03T02:54:56.225Z,97131.94
2018-06-03T02:57:22.110Z,97126.97
2018-06-03T02:59:47.979Z,97129.89
2018-06-03T03:02:13.865Z,97126.22
2018-06-03T03:04:39.760Z,97130.95
2018-06-03T03:07:05.672Z,97136.85
2018-06-03T03:09:31.549Z,97140.34
2018-06-03T03:11:57.422Z,97136.19
2018-06-03T03:14:23.291Z,97136.69
2018-06-03T03:16:49.159Z,97136.95
2018-06-03T03:19:14.998Z,97131.95
2018-06-03T03:21:40.866Z,97131.92
2018-06-03T03:24:06.729Z,97132.72
2018-06-03T03:26:32.618Z,97130.61
2018-06-03T03:28:58.492Z,97137.38
2018-06-03T03:31:24.375Z,97135.80
2018-06-03T03:33:50.236Z,97132.53
2018-06-03T03:36:16.112Z,97137.02
2018-06-03T03:38:42.276Z,97134.66
2018-06-03T03:41:08.145Z,97130.00
2018-06-03T03:43:33.978Z,97136.27
2018-06-03T03:45:59.937Z,97136.41
2018-06-03T03:48:25.788Z,97136.08
2018-06-03T03:50:51.633Z,97131.98
2018-06-03T03:53:17.485Z,97132.47
2018-06-03T03:55:43.346Z,97129.34
2018-06-03T03:58:09.169Z,97129.00
2018-06-03T04:00:35.026Z,97137.16
2018-06-03T04:03:00.853Z,97134.44
2018-06-03T04:05:26.706Z,97138.87
2018-06-03T04:07:52.569Z,97133.34
2018-06-03T04:10:18.444Z,97139.20
2018-06-03T04:12:44.294Z,97144.20
2018-06-03T04:15:10.157Z,97140.48
2018-06-03T04:17:36.039Z,97146.97
2018-06-03T04:20:01.885Z,97140.64
2018-06-03T04:22:27.725Z,97146.36
2018-06-03T04:24:53.551Z,97149.92
2018-06-03T04:27:19.391Z,97147.52
2018-06-03T04:29:45.246Z,97147.59
2018-06-03T04:32:11.112Z,97150.61
2018-06-03T04:34:36.981Z,97154.41
2018-06-03T04:37:02.895Z,97153.83
2018-06-03T04:39:28.745Z,97153.42
2018-06-03T04:41:54.578Z,97149.63
2018-06-03T04:44:20.410Z,97147.51
2018-06-03T04:46:46.387Z,97150.06
2018-06-03T04:49:12.252Z,97146.81
2018-06-03T04:51:38.141Z,97151.03
2018-06-03T04:54:04.015Z,97154.48
2018-06-03T04:56:29.903Z,97158.77
2018-06-03T04:58:55.729Z,97155.57
2018-06-03T05:01:21.570Z,97157.30
2018-06-03T05:03:47.444Z,97153.31
2018-06-03T05:06:13.309Z,97154.91
2018-06-03T05:08:39.178Z,97168.84
2018-06-03T05:11:05.070Z,97169.56
2018-06-03T05:13:30.906Z,97164.72
2018-06-03T05:15:56.777Z,97170.61
2018-06-03T05:18:22.624Z,97170.11
2018-06-03T05:20:48.485Z,97172.00
2018-06-03T05:23:14.338Z,97173.99
2018-06-03T05:25:40.170Z,97175.11
2018-06-03T05:28:06.041Z,97169.14
2018-06-03T05:30:31.894Z,97177.75
2018-06-03T05:32:57.761Z,97170.88
2018-06-03T05:35:23.613Z,97170.67
2018-06-03T05:37:49.441Z,97157.67
2018-06-03T05:40:15.288Z,97159.58
2018-06-03T05:42:41.136Z,97168.50
2018-06-03T05:45:06.986Z,97166.95
2018-06-03T05:47:32.928Z,97163.85
2018-06-03T05:49:58.785Z,97163.36
2018-06-03T05:52:24.657Z,97168.66
2018-06-03T05:54:50.508Z,97164.44
2018-06-03T05:57:16.388Z,97164.17
2018-06-03T05:59:42.241Z,97157.84
2018-06-03T06:02:08.101Z,97165.94
2018-06-03T06:04:33.947Z,97177.66
2018-06-03T06:06:59.778Z,97166.84
2018-06-03T06:09:25.641Z,97171.49
2018-06-03T06:11:51.500Z,97168.03
2018-06-03T06:14:17.369Z,97179.54
2018-06-03T06:16:43.240Z,97179.48
2018-06-03T06:19:09.085Z,97184.42
2018-06-03T06:21:34.965Z,97185.38
2018-06-03T06:24:00.828Z,97182.89
2018-06-03T06:26:26.696Z,97183.28
2018-06-03T06:28:52.570Z,97183.33
2018-06-03T06:31:18.453Z,97179.09
2018-06-03T06:33:44.322Z,97184.11
2018-06-03T06:36:10.245Z,97185.14
2018-06-03T06:38:36.109Z,97178.27
2018-06-03T06:41:01.992Z,97180.45
2018-06-03T06:43:27.901Z,97176.07
2018-06-03T06:45:53.842Z,97175.18
2018-06-03T06:48:26.533Z,97168.44
2018-06-03T06:50:52.449Z,97165.59
2018-06-03T06:53:18.329Z,97171.20
2018-06-03T06:55:44.209Z,97169.83
2018-06-03T06:58:10.080Z,97168.53
2018-06-03T07:00:35.933Z,97164.82
2018-06-03T07:03:01.817Z,97167.94
2018-06-03T07:05:27.681Z,97176.09
2018-06-03T07:07:53.537Z,97172.73
2018-06-03T07:10:19.386Z,97174.08
2018-06-03T07:12:45.278Z,97166.83
2018-06-03T07:15:11.168Z,97171.45
2018-06-03T07:17:37.069Z,97169.91
2018-06-03T07:20:02.952Z,97173.59
2018-06-03T07:22:29.759Z,97176.03
2018-06-03T07:24:56.137Z,97176.03
2018-06-03T07:27:22.027Z,97173.31
2018-06-03T07:29:47.885Z,97171.84
2018-06-03T07:32:13.784Z,97175.67
2018-06-03T07:34:39.670Z,97169.47
2018-06-03T07:37:05.560Z,97170.21
2018-06-03T07:39:31.435Z,97172.95
2018-06-03T07:41:57.346Z,97170.67
2018-06-03T07:44:23.302Z,97175.95
2018-06-03T07:46:49.201Z,97168.23
2018-06-03T07:49:15.105Z,97170.71
2018-06-03T07:51:40.994Z,97173.05
2018-06-03T07:54:06.908Z,97172.38
2018-06-03T07:56:32.785Z,97169.28
2018-06-03T07:58:58.647Z,97168.98
2018-06-03T08:01:24.550Z,97164.46
2018-06-03T08:03:50.431Z,97171.45
2018-06-03T08:06:16.354Z,97173.24
2018-06-03T08:08:42.308Z,97167.66
2018-06-03T08:11:08.265Z,97169.91
2018-06-03T08:13:34.153Z,97170.30
2018-06-03T08:16:00.064Z,97169.56
2018-06-03T08:18:25.951Z,97162.91
2018-06-03T08:20:51.833Z,97167.98
2018-06-03T08:23:17.707Z,97160.81
2018-06-03T08:25:43.585Z,97167.90
2018-06-03T08:28:09.483Z,97164.77
2018-06-03T08:30:35.330Z,97172.38
2018-06-03T08:33:01.201Z,97167.13
2018-06-03T08:35:27.241Z,97167.20
2018-06-03T08:37:53.169Z,97164.27
2018-06-03T08:40:19.073Z,97166.97
2018-06-03T08:42:44.967Z,97167.89
2018-06-03T08:45:11.369Z,97155.34
2018-06-03T08:47:37.242Z,97154.77
2018-06-03T08:50:03.222Z,97146.02
2018-06-03T08:52:29.156Z,97143.23
2018-06-03T08:54:55.039Z,97147.41
2018-06-03T08:57:20.946Z,97145.78
2018-06-03T08:59:47.548Z,97142.70
2018-06-03T09:02:13.571Z,97150.83
2018-06-03T09:04:39.496Z,97142.10
2018-06-03T09:07:05.743Z,97142.05
2018-06-03T09:09:31.653Z,97145.19
2018-06-03T09:11:57.616Z,97148.95
2018-06-03T09:14:23.498Z,97148.20
2018-06-03T09:16:49.921Z,97142.72
2018-06-03T09:19:15.904Z,97146.44
2018-06-03T09:21:41.830Z,97140.27
2018-06-03T09:24:07.728Z,97139.21
2018-06-03T09:26:33.649Z,97135.05
2018-06-03T09:28:59.548Z,97133.39
2018-06-03T09:31:25.474Z,97136.52
2018-06-03T09:33:51.426Z,97136.16
2018-06-03T09:36:17.292Z,97127.45
2018-06-03T09:38:43.249Z,97130.88
2018-06-03T09:41:09.231Z,97129.45
2018-06-03T09:43:35.112Z,97122.11
2018-06-03T09:46:01.026Z,97122.27
2018-06-03T09:48:26.920Z,97119.30
2018-06-03T09:50:52.792Z,97115.47
2018-06-03T09:53:18.730Z,97115.79
2018-06-03T09:55:53.553Z,97120.95
2018-06-03T09:58:19.417Z,97111.53
2018-06-03T10:00:45.270Z,97111.56
2018-06-03T10:03:11.180Z,97112.63
2018-06-03T10:05:37.005Z,97107.43
2018-06-03T10:08:02.881Z,97108.28
2018-06-03T10:10:28.760Z,97112.91
2018-06-03T10:12:54.621Z,97112.16
2018-06-03T10:15:20.517Z,97112.02
2018-06-03T10:17:46.696Z,97111.20
2018-06-03T10:20:12.581Z,97116.62
2018-06-03T10:22:38.465Z,97116.28
2018-06-03T10:25:04.353Z,97110.57
2018-06-03T10:27:30.213Z,97116.53
2018-06-03T10:29:56.135Z,97105.07
2018-06-03T10:32:22.176Z,97108.75
2018-06-03T10:34:48.121Z,97102.56
2018-06-03T10:37:14.013Z,97105.39
2018-06-03T10:39:39.974Z,97099.58
2018-06-03T10:42:05.842Z,97100.62
2018-06-03T10:44:31.696Z,97103.27
2018-06-03T10:46:57.564Z,97102.61
2018-06-03T10:49:23.459Z,97098.03
2018-06-03T10:51:49.310Z,97094.23
2018-06-03T10:54:15.156Z,97090.36
2018-06-03T10:56:41.020Z,97087.77
2018-06-03T10:59:06.892Z,97082.58
2018-06-03T11:01:32.756Z,97085.86
2018-06-03T11:03:58.591Z,97087.41
2018-06-03T11:06:24.472Z,97085.73
2018-06-03T11:08:50.357Z,97083.63
2018-06-03T11:11:16.213Z,97081.71
2018-06-03T11:13:42.061Z,97069.36
2018-06-03T11:16:07.956Z,97066.27
2018-06-03T11:18:33.823Z,97065.02
2018-06-03T11:20:59.676Z,97060.02
2018-06-03T11:23:25.568Z,97056.73
2018-06-03T11:25:51.440Z,97058.20
2018-06-03T11:28:17.291Z,97049.98
2018-06-03T11:30:43.172Z,97061.45
2018-06-03T11:33:09.064Z,97055.51
2018-06-03T11:35:34.921Z,97045.91
2018-06-03T11:38:00.774Z,97045.16
2018-06-03T11:40:26.653Z,97035.52
2018-06-03T11:42:52.512Z,97032.53
2018-06-03T11:45:18.362Z,97037.53
2018-06-03T11:47:44.197Z,97028.03
2018-06-03T11:50:10.082Z,97022.95
2018-06-03T11:52:35.942Z,97019.22
2018-06-03T11:55:01.807Z,97021.95
2018-06-03T11:57:27.714Z,97021.87
2018-06-03T11:59:53.620Z,97029.05
2018-06-03T12:02:19.540Z,97025.42
2018-06-03T12:05:23.335Z,97026.89
2018-06-03T12:07:50.434Z,97022.16
2018-06-03T12:10:17.612Z,97017.80
2018-06-03T12:12:44.770Z,97011.89
2018-06-03T12:15:11.901Z,97012.03
2018-06-03T12:17:39.029Z,97004.27
2018-06-03T12:20:06.119Z,96997.09
2018-06-03T12:22:33.252Z,96999.88
2018-06-03T12:25:00.373Z,96998.58
2018-06-03T12:27:27.507Z,96995.88
2018-06-03T12:29:54.721Z,96987.47
2018-06-03T12:32:21.827Z,96984.47
2018-06-03T12:34:49.040Z,96975.41
2018-06-03T12:37:16.188Z,96975.58
2018-06-03T12:39:43.325Z,96972.59
2018-06-03T12:42:10.462Z,96974.06
2018-06-03T12:44:37.612Z,96970.42
2018-06-03T12:47:04.812Z,96967.02
2018-06-03T12:49:31.957Z,96970.49
2018-06-03T12:51:59.173Z,96973.17
2018-06-03T12:54:26.321Z,96969.48
2018-06-03T12:56:53.511Z,96971.33
2018-06-03T12:59:20.725Z,96969.36
2018-06-03T13:01:47.863Z,96969.52
2018-06-03T13:04:15.060Z,96960.77
2018-06-03T13:06:42.180Z,96964.33
2018-06-03T13:09:09.353Z,96952.72
2018-06-03T13:11:36.521Z,96954.92
2018-06-03T13:14:03.729Z,96947.33
2018-06-03T13:16:30.912Z,96944.61
2018-06-03T13:18:58.100Z,96940.52
2018-06-03T13:21:25.198Z,96940.25
2018-06-03T13:23:52.321Z,96937.41
2018-06-03T13:26:19.484Z,96939.44
2018-06-03T13:28:46.641Z,96933.62
2018-06-03T13:31:13.823Z,96933.69
2018-06-03T13:33:40.942Z,96935.94
2018-06-03T13:36:08.073Z,96928.12
2018-06-03T13:38:35.210Z,96928.60
2018-06-03T13:41:02.334Z,96929.34
2018-06-03T13:43:29.500Z,96923.70
2018-06-03T13:45:56.663Z,96923.48
2018-06-03T13:48:23.825Z,96919.47
2018-06-03T13:50:50.943Z,96919.02
2018-06-03T13:53:18.069Z,96913.87
2018-06-03T13:55:45.233Z,96914.06
2018-06-03T13:58:12.398Z,96914.63
2018-06-03T14:00:39.721Z,96914.78
2018-06-03T14:03:06.928Z,96912.16
2018-06-03T14:05:34.088Z,96911.09
2018-06-03T14:08:01.261Z,96902.92
2018-06-03T14:10:28.426Z,96895.33
2018-06-03T14:12:55.637Z,96896.08
2018-06-03T14:15:22.749Z,96895.97
2018-06-03T14:17:49.936Z,96897.73
2018-06-03T14:20:17.172Z,96892.86
2018-06-03T14:22:44.429Z,96895.52
2018-06-03T14:25:11.697Z,96885.92
2018-06-03T14:27:38.858Z,96883.72
2018-06-03T14:30:06.108Z,96883.69
2018-06-03T14:32:33.256Z,96876.50
2018-06-03T14:35:00.490Z,96881.23
2018-06-03T14:37:27.669Z,96876.49
2018-06-03T14:39:54.870Z,96877.67
2018-06-03T14:42:22.057Z,96879.12
2018-06-03T14:44:49.213Z,96876.84
2018-06-03T14:47:16.404Z,96875.42
2018-06-03T14:49:43.605Z,96867.27
2018-06-03T14:52:10.777Z,96863.84
2018-06-03T14:54:38.024Z,96861.09
2018-06-03T14:57:05.248Z,96856.37
2018-06-03T14:59:32.418Z,96847.71
2018-06-03T15:01:59.610Z,96847.34
2018-06-03T15:04:26.802Z,96848.43
2018-06-03T15:06:53.977Z,96842.83
2018-06-03T15:09:21.219Z,96841.08
2018-06-03T15:11:48.453Z,96844.63
2018-06-03T15:14:15.694Z,96837.77
2018-06-03T15:16:42.937Z,96837.55
2018-06-03T15:19:10.169Z,96834.83
2018-06-03T15:21:37.405Z,96832.77
2018-06-03T15:24:04.630Z,96831.88
2018-06-03T15:26:31.825Z,96827.91
2018-06-03T15:28:59.052Z,96823.03
2018-06-03T15:31:26.274Z,96828.90
2018-06-03T15:33:53.536Z,96821.81
2018-06-03T15:36:20.695Z,96821.11
2018-06-03T15:38:47.893Z,96824.30
2018-06-03T15:41:15.174Z,96814.05
2018-06-03T15:43:42.409Z,96815.22
2018-06-03T15:46:09.652Z,96818.31
2018-06-03T15:48:36.830Z,96810.48
2018-06-03T15:51:03.994Z,96820.08
2018-06-03T15:53:31.227Z,96813.20
2018-06-03T15:55:58.440Z,96808.84
2018-06-03T15:58:25.629Z,96811.17
2018-06-03T16:00:52.931Z,96807.41
2018-06-03T16:03:20.175Z,96804.46
2018-06-03T16:05:47.402Z,96801.81
2018-06-03T16:08:14.621Z,96804.46
2018-06-03T16:10:41.792Z,96803.56
2018-06-03T16:13:09.029Z,96794.88
2018-06-03T16:15:36.204Z,96789.97
2018-06-03T16:18:03.413Z,96791.59
2018-06-03T16:20:30.654Z,96791.86
2018-06-03T16:22:57.877Z,96791.59
2018-06-03T16:25:25.070Z,96794.15
2018-06-03T16:27:52.254Z,96789.91
2018-06-03T16:30:19.519Z,96781.16
2018-06-03T16:32:46.701Z,96783.61
2018-06-03T16:35:13.855Z,96790.93
2018-06-03T16:37:41.027Z,96787.69
2018-06-03T16:40:08.175Z,96783.41
2018-06-03T16:42:35.348Z,96783.45
2018-06-03T16:45:02.542Z,96779.60
2018-06-03T16:47:29.673Z,96776.89
2018-06-03T16:49:56.869Z,96776.38
2018-06-03T16:52:24.062Z,96779.60
2018-06-03T16:54:51.271Z,96779.40
2018-06-03T16:57:18.455Z,96779.05
2018-06-03T16:59:45.715Z,96774.84
2018-06-03T17:02:12.976Z,96774.73
2018-06-03T17:04:40.165Z,96770.91
2018-06-03T17:07:07.383Z,96766.34
2018-06-03T17:09:34.592Z,96758.85
2018-06-03T17:12:01.761Z,96767.36
2018-06-03T17:14:29.063Z,96762.91
2018-06-03T17:16:56.295Z,96761.30
2018-06-03T17:19:23.461Z,96766.50
2018-06-03T17:21:50.659Z,96761.67
2018-06-03T17:24:17.835Z,96754.47
2018-06-03T17:26:45.041Z,96757.19
2018-06-03T17:29:12.250Z,96749.00
2018-06-03T17:31:39.398Z,96750.83
2018-06-03T17:34:06.715Z,96749.09
2018-06-03T17:36:33.899Z,96749.34
2018-06-03T17:39:01.187Z,96748.17
2018-06-03T17:41:28.418Z,96746.11
2018-06-03T17:43:55.657Z,96749.17
2018-06-03T17:46:22.805Z,96742.40
2018-06-03T17:48:50.132Z,96745.83
2018-06-03T17:51:17.350Z,96740.25
2018-06-03T17:53:44.531Z,96739.28
2018-06-03T17:56:11.683Z,96743.94
2018-06-03T17:58:38.815Z,96741.36
2018-06-03T18:01:06.049Z,96735.18
2018-06-03T18:03:33.225Z,96733.89
2018-06-03T18:06:00.433Z,96728.59
2018-06-03T18:08:27.737Z,96734.17
2018-06-03T18:10:54.860Z,96736.47
2018-06-03T18:13:22.025Z,96733.09
2018-06-03T18:15:49.175Z,96732.65
2018-06-03T18:18:16.377Z,96743.55
2018-06-03T18:20:43.559Z,96738.42
2018-06-03T18:23:10.794Z,96745.23
2018-06-03T18:25:37.959Z,96734.78
2018-06-03T18:28:05.836Z,96732.55
2018-06-03T18:30:33.108Z,96731.13
2018-06-03T18:33:00.764Z,96729.84
2018-06-03T18:35:27.937Z,96731.06
2018-06-03T18:37:55.106Z,96729.06
2018-06-03T18:40:22.321Z,96726.56
2018-06-03T18:42:49.512Z,96732.12
2018-06-03T18:45:16.821Z,96727.84
2018-06-03T18:47:44.022Z,96724.89
2018-06-03T18:50:11.241Z,96724.97
2018-06-03T18:52:38.462Z,96726.47
2018-06-03T18:55:05.696Z,96727.48
2018-06-03T18:57:32.944Z,96726.08
2018-06-03T19:00:00.198Z,96731.97
2018-06-03T19:02:27.327Z,96732.56
2018-06-03T19:04:54.487Z,96730.86
2018-06-03T19:07:21.732Z,96732.97
2018-06-03T19:09:49.005Z,96737.78
2018-06-03T19:12:16.237Z,96735.67
2018-06-03T19:14:43.459Z,96744.06
2018-06-03T19:17:10.660Z,96742.67
2018-06-03T19:19:37.898Z,96740.50
2018-06-03T19:22:05.124Z,96746.90
2018-06-03T19:24:32.376Z,96748.86
2018-06-03T19:26:59.572Z,96747.23
2018-06-03T19:29:26.762Z,96752.84
2018-06-03T19:31:54.010Z,96746.13
2018-06-03T19:34:21.322Z,96754.72
2018-06-03T19:36:48.505Z,96752.82
2018-06-03T19:39:15.664Z,96753.00
2018-06-03T19:41:42.798Z,96756.59
2018-06-03T19:44:10.020Z,96761.95
2018-06-03T19:46:37.201Z,96769.15
2018-06-03T19:49:04.507Z,96764.13
2018-06-03T19:51:31.820Z,96768.94
2018-06-03T19:53:58.980Z,96771.56
2018-06-03T19:56:26.233Z,96784.06
2018-06-03T19:58:53.454Z,96781.73
2018-06-03T20:01:20.651Z,96784.59
2018-06-03T20:03:47.941Z,96780.02
2018-06-03T20:06:15.164Z,96781.56
2018-06-03T20:08:42.490Z,96775.67
2018-06-03T20:11:09.678Z,96775.84
2018-06-03T20:13:36.853Z,96779.11
2018-06-03T20:16:04.239Z,96770.84
2018-06-03T20:18:31.469Z,96777.39
2018-06-03T20:20:58.702Z,96775.29
2018-06-03T20:23:25.924Z,96773.55
2018-06-03T20:25:53.120Z,96773.12
2018-06-03T20:28:20.377Z,96771.20
2018-06-03T20:30:47.581Z,96773.94
2018-06-03T20:33:14.842Z,96751.42
2018-06-03T20:35:42.096Z,96775.47
2018-06-03T20:38:09.323Z,96777.73
2018-06-03T20:40:36.529Z,96774.67
2018-06-03T20:43:03.769Z,96780.82
2018-06-03T20:45:31.009Z,96788.12
2018-06-03T20:47:58.224Z,96783.54
2018-06-03T20:50:25.462Z,96789.30
2018-06-03T20:52:52.656Z,96784.13
2018-06-03T20:55:19.870Z,96790.23
2018-06-03T20:57:47.087Z,96792.70
2018-06-03T21:00:14.317Z,96792.72
2018-06-03T21:02:41.523Z,96783.12
2018-06-03T21:05:08.686Z,96786.19
2018-06-03T21:07:35.957Z,96784.86
2018-06-03T21:10:03.275Z,96790.80
2018-06-03T21:12:30.488Z,96792.14
2018-06-03T21:14:57.661Z,96794.06
2018-06-03T21:17:24.844Z,96799.61
2018-06-03T21:19:52.076Z,96802.05
2018-06-03T21:22:19.377Z,96804.03
2018-06-03T21:24:46.619Z,96803.92
2018-06-03T21:27:14.316Z,96808.27
2018-06-03T21:29:41.561Z,96795.62
2018-06-03T21:32:08.795Z,96807.05
2018-06-03T21:34:35.953Z,96799.73
2018-06-03T21:37:03.118Z,96804.72
2018-06-03T21:39:30.339Z,96803.67
2018-06-03T21:41:57.581Z,96803.84
2018-06-03T21:44:24.794Z,96814.60
2018-06-03T21:46:51.998Z,96809.12
2018-06-03T21:49:19.255Z,96812.61
2018-06-03T21:51:46.488Z,96812.34
2018-06-03T21:54:13.679Z,96805.29
2018-06-03T21:56:40.884Z,96817.11
2018-06-03T21:59:08.118Z,96812.20
2018-06-03T22:01:35.357Z,96811.58
2018-06-03T22:04:02.581Z,96813.53
2018-06-03T22:06:29.725Z,96811.92
2018-06-03T22:08:56.969Z,96809.04
2018-06-03T22:11:24.160Z,96810.80
2018-06-03T22:13:51.357Z,96814.85
2018-06-03T22:16:18.592Z,96810.50
2018-06-03T22:18:45.801Z,96808.74
2018-06-03T22:21:12.964Z,96805.86
2018-06-03T22:23:40.229Z,96808.15
2018-06-03T22:26:07.442Z,96810.17
2018-06-03T22:28:34.681Z,96807.53
2018-06-03T22:31:01.989Z,96807.39
2018-06-03T22:33:29.149Z,96802.16
2018-06-03T22:35:56.353Z,96804.47
2018-06-03T22:38:23.540Z,96782.89
2018-06-03T22:40:50.802Z,96801.86
2018-06-03T22:43:17.965Z,96805.73
2018-06-03T22:45:45.129Z,96808.83
2018-06-03T22:48:12.348Z,96802.90
2018-06-03T22:50:39.515Z,96805.77
2018-06-03T22:53:06.736Z,96800.88
2018-06-03T22:55:33.872Z,96797.89
2018-06-03T22:58:00.998Z,96793.49
2018-06-03T23:00:32.083Z,96787.80
2018-06-03T23:03:04.972Z,96787.43
2018-06-03T23:05:32.154Z,96791.41
2018-06-03T23:07:59.329Z,96788.56
2018-06-03T23:10:26.599Z,96786.80
2018-06-03T23:12:53.798Z,96782.05
2018-06-03T23:15:20.971Z,96775.99
2018-06-03T23:17:48.102Z,96778.23
2018-06-03T23:20:15.264Z,96781.08
2018-06-03T23:22:42.448Z,96783.59
2018-06-03T23:25:09.562Z,96779.98
2018-06-03T23:27:36.753Z,96774.84
2018-06-03T23:30:04.010Z,96771.20
2018-06-03T23:32:31.149Z,96771.11
2018-06-03T23:34:58.311Z,96769.12
2018-06-03T23:37:25.480Z,96773.00
2018-06-03T23:39:52.643Z,96762.70
2018-06-03T23:42:19.855Z,96769.48
2018-06-03T23:44:47.015Z,96758.91
2018-06-03T23:47:14.192Z,96762.43
2018-06-03T23:49:41.357Z,96759.84
2018-06-03T23:52:08.602Z,96752.84
2018-06-03T23:54:35.722Z,96754.88
2018-06-03T23:57:02.890Z,96746.18
2018-06-03T23:59:30.016Z,96746.25
